sensor_id;sensor_type;location;lat;lon;timestamp;pressure;altitude;pressure_sealevel;temperature;humidity
50933;BME280;36921;49.006;9.292;2023-02-13T00:01:02;100785.41;;;0.63;100.00
50933;BME280;36921;49.006;9.292;2023-02-13T00:03:28;100791.00;;;0.59;100.00
50933;BME280;36921;49.006;9.292;2023-02-13T00:05:53;100796.97;;;0.62;100.00
50933;BME280;36921;49.006;9.292;2023-02-13T00:08:19;100779.66;;;0.55;100.00
50933;BME280;36921;49.006;9.292;2023-02-13T00:10:44;100758.56;;;0.36;100.00
50933;BME280;36921;49.006;9.292;2023-02-13T00:13:09;100779.41;;;0.44;100.00
50933;BME280;36921;49.006;9.292;2023-02-13T00:15:34;100769.41;;;0.33;100.00
50933;BME280;36921;49.006;9.292;2023-02-13T00:18:01;100778.00;;;0.22;100.00
50933;BME280;36921;49.006;9.292;2023-02-13T00:20:26;100787.88;;;0.20;100.00
50933;BME280;36921;49.006;9.292;2023-02-13T00:22:51;100791.41;;;0.05;100.00
50933;BME280;36921;49.006;9.292;2023-02-13T00:25:17;100774.38;;;-0.07;100.00
50933;BME280;36921;49.006;9.292;2023-02-13T00:27:42;100786.47;;;-0.01;100.00
50933;BME280;36921;49.006;9.292;2023-02-13T00:30:08;100783.31;;;-0.08;100.00
50933;BME280;36921;49.006;9.292;2023-02-13T00:32:33;100780.53;;;-0.06;100.00
50933;BME280;36921;49.006;9.292;2023-02-13T00:34:58;100778.72;;;-0.06;100.00
50933;BME280;36921;49.006;9.292;2023-02-13T00:37:24;100778.06;;;-0.09;100.00
50933;BME280;36921;49.006;9.292;2023-02-13T00:39:50;100781.50;;;-0.07;100.00
50933;BME280;36921;49.006;9.292;2023-02-13T00:42:15;100782.78;;;-0.14;100.00
50933;BME280;36921;49.006;9.292;2023-02-13T00:44:40;100785.06;;;-0.08;100.00
50933;BME280;36921;49.006;9.292;2023-02-13T00:47:05;100785.44;;;-0.14;100.00
50933;BME280;36921;49.006;9.292;2023-02-13T00:49:31;100780.47;;;-0.05;100.00
50933;BME280;36921;49.006;9.292;2023-02-13T00:51:56;100780.34;;;-0.03;100.00
50933;BME280;36921;49.006;9.292;2023-02-13T00:54:21;100763.47;;;-0.18;100.00
50933;BME280;36921;49.006;9.292;2023-02-13T00:56:47;100767.25;;;-0.22;100.00
50933;BME280;36921;49.006;9.292;2023-02-13T00:59:12;100767.78;;;-0.31;100.00
50933;BME280;36921;49.006;9.292;2023-02-13T01:01:38;100781.16;;;-0.33;100.00
50933;BME280;36921;49.006;9.292;2023-02-13T01:04:03;100784.75;;;-0.34;100.00
50933;BME280;36921;49.006;9.292;2023-02-13T01:06:28;100783.03;;;-0.35;100.00
50933;BME280;36921;49.006;9.292;2023-02-13T01:08:54;100789.19;;;-0.34;100.00
50933;BME280;36921;49.006;9.292;2023-02-13T01:11:19;100790.31;;;-0.38;100.00
50933;BME280;36921;49.006;9.292;2023-02-13T01:13:45;100780.03;;;-0.45;100.00
50933;BME280;36921;49.006;9.292;2023-02-13T01:16:10;100801.56;;;-0.49;100.00
50933;BME280;36921;49.006;9.292;2023-02-13T01:18:36;100787.81;;;-0.57;100.00
50933;BME280;36921;49.006;9.292;2023-02-13T01:21:07;100802.81;;;-0.56;100.00
50933;BME280;36921;49.006;9.292;2023-02-13T01:23:35;100803.84;;;-0.59;100.00
50933;BME280;36921;49.006;9.292;2023-02-13T01:26:03;100800.84;;;-0.53;100.00
50933;BME280;36921;49.006;9.292;2023-02-13T01:28:29;100792.59;;;-0.64;100.00
50933;BME280;36921;49.006;9.292;2023-02-13T01:30:55;100790.03;;;-0.65;100.00
50933;BME280;36921;49.006;9.292;2023-02-13T01:33:23;100799.78;;;-0.66;100.00
50933;BME280;36921;49.006;9.292;2023-02-13T01:35:49;100788.03;;;-0.78;100.00
50933;BME280;36921;49.006;9.292;2023-02-13T01:38:15;100796.44;;;-0.70;100.00
50933;BME280;36921;49.006;9.292;2023-02-13T01:40:52;100797.03;;;-0.80;100.00
50933;BME280;36921;49.006;9.292;2023-02-13T01:43:18;100782.09;;;-0.83;100.00
50933;BME280;36921;49.006;9.292;2023-02-13T01:45:46;100796.38;;;-0.68;100.00
50933;BME280;36921;49.006;9.292;2023-02-13T01:48:16;100791.47;;;-0.76;100.00
50933;BME280;36921;49.006;9.292;2023-02-13T01:50:50;100775.00;;;-1.00;100.00
50933;BME280;36921;49.006;9.292;2023-02-13T01:53:26;100779.81;;;-1.06;100.00
50933;BME280;36921;49.006;9.292;2023-02-13T01:56:05;100777.94;;;-1.04;100.00
50933;BME280;36921;49.006;9.292;2023-02-13T01:58:36;100785.13;;;-1.06;100.00
50933;BME280;36921;49.006;9.292;2023-02-13T02:01:05;100786.19;;;-0.93;100.00
50933;BME280;36921;49.006;9.292;2023-02-13T02:06:02;100790.13;;;-1.18;100.00
50933;BME280;36921;49.006;9.292;2023-02-13T02:08:30;100785.28;;;-1.27;100.00
50933;BME280;36921;49.006;9.292;2023-02-13T02:10:57;100781.09;;;-1.31;100.00
50933;BME280;36921;49.006;9.292;2023-02-13T02:13:25;100787.00;;;-1.26;100.00
50933;BME280;36921;49.006;9.292;2023-02-13T02:15:50;100779.34;;;-1.32;100.00
50933;BME280;36921;49.006;9.292;2023-02-13T02:18:21;100773.75;;;-1.43;100.00
50933;BME280;36921;49.006;9.292;2023-02-13T02:23:57;100777.94;;;-1.39;100.00
50933;BME280;36921;49.006;9.292;2023-02-13T02:26:43;100783.63;;;-1.47;100.00
50933;BME280;36921;49.006;9.292;2023-02-13T02:29:32;100770.13;;;-1.42;100.00
50933;BME280;36921;49.006;9.292;2023-02-13T02:48:48;100775.84;;;-1.67;100.00
50933;BME280;36921;49.006;9.292;2023-02-13T02:54:33;100767.53;;;-1.79;100.00
50933;BME280;36921;49.006;9.292;2023-02-13T02:57:24;100755.59;;;-1.87;100.00
50933;BME280;36921;49.006;9.292;2023-02-13T02:59:51;100775.66;;;-1.82;100.00
50933;BME280;36921;49.006;9.292;2023-02-13T03:02:35;100757.69;;;-1.94;100.00
50933;BME280;36921;49.006;9.292;2023-02-13T03:05:23;100769.94;;;-1.91;100.00
50933;BME280;36921;49.006;9.292;2023-02-13T03:08:09;100761.34;;;-2.14;100.00
50933;BME280;36921;49.006;9.292;2023-02-13T03:10:36;100756.41;;;-2.22;100.00
50933;BME280;36921;49.006;9.292;2023-02-13T03:13:43;100781.19;;;-2.04;100.00
50933;BME280;36921;49.006;9.292;2023-02-13T03:16:14;100777.25;;;-2.14;100.00
50933;BME280;36921;49.006;9.292;2023-02-13T03:19:00;100771.31;;;-2.19;100.00
50933;BME280;36921;49.006;9.292;2023-02-13T03:21:56;100775.31;;;-2.29;100.00
50933;BME280;36921;49.006;9.292;2023-02-13T03:27:55;100798.31;;;-2.30;100.00
50933;BME280;36921;49.006;9.292;2023-02-13T03:30:57;100792.16;;;-2.30;100.00
50933;BME280;36921;49.006;9.292;2023-02-13T03:36:22;100792.09;;;-2.29;100.00
50933;BME280;36921;49.006;9.292;2023-02-13T03:39:45;100783.56;;;-2.35;100.00
50933;BME280;36921;49.006;9.292;2023-02-13T03:44:52;100786.88;;;-2.30;100.00
50933;BME280;36921;49.006;9.292;2023-02-13T03:47:39;100777.91;;;-2.47;100.00
50933;BME280;36921;49.006;9.292;2023-02-13T03:50:07;100809.34;;;-2.39;100.00
50933;BME280;36921;49.006;9.292;2023-02-13T03:52:53;100795.75;;;-2.31;100.00
50933;BME280;36921;49.006;9.292;2023-02-13T03:55:25;100796.69;;;-2.32;100.00
50933;BME280;36921;49.006;9.292;2023-02-13T03:58:13;100804.78;;;-2.35;100.00
50933;BME280;36921;49.006;9.292;2023-02-13T04:01:00;100821.19;;;-2.27;100.00
50933;BME280;36921;49.006;9.292;2023-02-13T04:03:30;100823.97;;;-2.30;100.00
50933;BME280;36921;49.006;9.292;2023-02-13T04:06:10;100820.94;;;-2.42;100.00
50933;BME280;36921;49.006;9.292;2023-02-13T04:08:36;100804.91;;;-2.57;100.00
50933;BME280;36921;49.006;9.292;2023-02-13T04:11:15;100833.34;;;-2.42;100.00
50933;BME280;36921;49.006;9.292;2023-02-13T04:13:56;100835.16;;;-2.43;100.00
50933;BME280;36921;49.006;9.292;2023-02-13T04:16:33;100824.75;;;-2.47;100.00
50933;BME280;36921;49.006;9.292;2023-02-13T04:19:00;100839.75;;;-2.46;100.00
50933;BME280;36921;49.006;9.292;2023-02-13T04:21:26;100828.53;;;-2.53;100.00
50933;BME280;36921;49.006;9.292;2023-02-13T04:23:51;100818.59;;;-2.48;100.00
50933;BME280;36921;49.006;9.292;2023-02-13T04:26:19;100835.84;;;-2.39;100.00
50933;BME280;36921;49.006;9.292;2023-02-13T04:28:46;100829.59;;;-2.57;100.00
50933;BME280;36921;49.006;9.292;2023-02-13T04:31:11;100831.63;;;-2.62;100.00
50933;BME280;36921;49.006;9.292;2023-02-13T04:33:37;100808.00;;;-2.67;100.00
50933;BME280;36921;49.006;9.292;2023-02-13T04:36:02;100815.00;;;-2.66;100.00
50933;BME280;36921;49.006;9.292;2023-02-13T04:38:27;100833.19;;;-2.58;100.00
50933;BME280;36921;49.006;9.292;2023-02-13T04:40:53;100821.94;;;-2.63;100.00
50933;BME280;36921;49.006;9.292;2023-02-13T04:43:18;100807.53;;;-2.76;100.00
50933;BME280;36921;49.006;9.292;2023-02-13T04:45:48;100812.97;;;-2.79;100.00
50933;BME280;36921;49.006;9.292;2023-02-13T04:48:13;100817.59;;;-2.64;100.00
50933;BME280;36921;49.006;9.292;2023-02-13T04:50:39;100825.41;;;-2.61;100.00
50933;BME280;36921;49.006;9.292;2023-02-13T04:53:04;100835.28;;;-2.65;100.00
50933;BME280;36921;49.006;9.292;2023-02-13T04:55:30;100801.78;;;-2.86;100.00
50933;BME280;36921;49.006;9.292;2023-02-13T04:57:55;100811.53;;;-2.87;100.00
50933;BME280;36921;49.006;9.292;2023-02-13T05:00:22;100828.44;;;-2.70;100.00
50933;BME280;36921;49.006;9.292;2023-02-13T05:02:48;100817.06;;;-2.72;100.00
50933;BME280;36921;49.006;9.292;2023-02-13T05:05:13;100824.59;;;-2.63;100.00
50933;BME280;36921;49.006;9.292;2023-02-13T05:07:40;100823.03;;;-2.67;100.00
50933;BME280;36921;49.006;9.292;2023-02-13T05:10:06;100824.59;;;-2.63;100.00
50933;BME280;36921;49.006;9.292;2023-02-13T05:12:31;100818.44;;;-2.63;100.00
50933;BME280;36921;49.006;9.292;2023-02-13T05:14:56;100827.59;;;-2.71;100.00
50933;BME280;36921;49.006;9.292;2023-02-13T05:17:22;100807.88;;;-2.84;100.00
50933;BME280;36921;49.006;9.292;2023-02-13T05:19:47;100823.38;;;-2.75;100.00
50933;BME280;36921;49.006;9.292;2023-02-13T05:22:12;100822.63;;;-2.78;100.00
50933;BME280;36921;49.006;9.292;2023-02-13T05:24:56;100832.97;;;-2.72;100.00
50933;BME280;36921;49.006;9.292;2023-02-13T05:27:22;100828.06;;;-2.81;100.00
50933;BME280;36921;49.006;9.292;2023-02-13T05:29:47;100829.16;;;-2.85;100.00
50933;BME280;36921;49.006;9.292;2023-02-13T05:32:12;100831.31;;;-2.75;100.00
50933;BME280;36921;49.006;9.292;2023-02-13T05:34:38;100831.81;;;-2.85;100.00
50933;BME280;36921;49.006;9.292;2023-02-13T05:37:03;100827.69;;;-2.93;100.00
50933;BME280;36921;49.006;9.292;2023-02-13T05:39:28;100830.81;;;-3.03;100.00
50933;BME280;36921;49.006;9.292;2023-02-13T05:41:53;100834.97;;;-3.18;100.00
50933;BME280;36921;49.006;9.292;2023-02-13T05:44:19;100826.91;;;-3.15;100.00
50933;BME280;36921;49.006;9.292;2023-02-13T05:46:44;100820.56;;;-3.32;100.00
50933;BME280;36921;49.006;9.292;2023-02-13T05:49:11;100828.09;;;-3.22;100.00
50933;BME280;36921;49.006;9.292;2023-02-13T05:51:36;100832.06;;;-3.12;100.00
50933;BME280;36921;49.006;9.292;2023-02-13T05:54:02;100837.34;;;-3.12;100.00
50933;BME280;36921;49.006;9.292;2023-02-13T05:56:28;100828.16;;;-3.24;100.00
50933;BME280;36921;49.006;9.292;2023-02-13T05:58:54;100840.59;;;-3.26;100.00
50933;BME280;36921;49.006;9.292;2023-02-13T06:01:20;100813.88;;;-3.40;100.00
50933;BME280;36921;49.006;9.292;2023-02-13T06:03:46;100839.22;;;-3.35;100.00
50933;BME280;36921;49.006;9.292;2023-02-13T06:06:12;100822.91;;;-3.46;100.00
50933;BME280;36921;49.006;9.292;2023-02-13T06:08:38;100831.66;;;-3.44;100.00
50933;BME280;36921;49.006;9.292;2023-02-13T06:11:03;100825.78;;;-3.50;100.00
50933;BME280;36921;49.006;9.292;2023-02-13T06:13:29;100836.09;;;-3.44;100.00
50933;BME280;36921;49.006;9.292;2023-02-13T06:15:54;100821.59;;;-3.56;100.00
50933;BME280;36921;49.006;9.292;2023-02-13T06:18:20;100816.53;;;-3.62;100.00
50933;BME280;36921;49.006;9.292;2023-02-13T06:20:45;100819.59;;;-3.71;100.00
50933;BME280;36921;49.006;9.292;2023-02-13T06:23:11;100834.38;;;-3.67;100.00
50933;BME280;36921;49.006;9.292;2023-02-13T06:25:36;100829.22;;;-3.70;100.00
50933;BME280;36921;49.006;9.292;2023-02-13T06:28:03;100841.16;;;-3.60;100.00
50933;BME280;36921;49.006;9.292;2023-02-13T06:30:29;100831.44;;;-3.60;100.00
50933;BME280;36921;49.006;9.292;2023-02-13T06:32:55;100835.38;;;-3.48;100.00
50933;BME280;36921;49.006;9.292;2023-02-13T06:35:20;100845.63;;;-3.40;100.00
50933;BME280;36921;49.006;9.292;2023-02-13T06:37:45;100849.00;;;-3.37;100.00
50933;BME280;36921;49.006;9.292;2023-02-13T06:40:12;100840.91;;;-3.34;100.00
50933;BME280;36921;49.006;9.292;2023-02-13T06:42:38;100826.38;;;-3.23;100.00
50933;BME280;36921;49.006;9.292;2023-02-13T06:45:05;100862.38;;;-2.99;100.00
50933;BME280;36921;49.006;9.292;2023-02-13T06:47:30;100852.84;;;-3.03;100.00
50933;BME280;36921;49.006;9.292;2023-02-13T06:49:55;100847.56;;;-3.03;100.00
50933;BME280;36921;49.006;9.292;2023-02-13T06:52:21;100865.03;;;-2.99;100.00
50933;BME280;36921;49.006;9.292;2023-02-13T06:54:46;100850.22;;;-3.03;100.00
50933;BME280;36921;49.006;9.292;2023-02-13T06:57:11;100851.25;;;-3.07;100.00
50933;BME280;36921;49.006;9.292;2023-02-13T06:59:36;100862.25;;;-2.96;100.00
50933;BME280;36921;49.006;9.292;2023-02-13T07:02:02;100850.13;;;-3.01;100.00
50933;BME280;36921;49.006;9.292;2023-02-13T07:04:27;100846.38;;;-2.96;100.00
50933;BME280;36921;49.006;9.292;2023-02-13T07:06:56;100852.84;;;-2.82;100.00
50933;BME280;36921;49.006;9.292;2023-02-13T07:09:24;100849.59;;;-2.69;100.00
50933;BME280;36921;49.006;9.292;2023-02-13T07:11:49;100845.94;;;-2.66;100.00
50933;BME280;36921;49.006;9.292;2023-02-13T07:21:20;100867.38;;;-1.76;100.00
50933;BME280;36921;49.006;9.292;2023-02-13T07:23:51;100854.41;;;-1.46;100.00
50933;BME280;36921;49.006;9.292;2023-02-13T07:26:17;100857.91;;;-1.11;100.00
50933;BME280;36921;49.006;9.292;2023-02-13T07:28:42;100852.69;;;-1.29;100.00
50933;BME280;36921;49.006;9.292;2023-02-13T07:31:22;100806.69;;;-1.30;100.00
50933;BME280;36921;49.006;9.292;2023-02-13T07:37:00;100821.44;;;-0.40;100.00
50933;BME280;36921;49.006;9.292;2023-02-13T07:39:26;100817.00;;;-0.08;100.00
50933;BME280;36921;49.006;9.292;2023-02-13T07:41:51;100806.81;;;0.00;100.00
50933;BME280;36921;49.006;9.292;2023-02-13T07:44:16;100820.59;;;0.22;100.00
50933;BME280;36921;49.006;9.292;2023-02-13T07:46:42;100799.66;;;0.32;100.00
50933;BME280;36921;49.006;9.292;2023-02-13T07:49:07;100798.81;;;0.16;100.00
50933;BME280;36921;49.006;9.292;2023-02-13T07:51:33;100808.03;;;0.71;100.00
50933;BME280;36921;49.006;9.292;2023-02-13T07:53:58;100788.28;;;0.89;100.00
50933;BME280;36921;49.006;9.292;2023-02-13T07:56:25;100809.66;;;1.32;100.00
50933;BME280;36921;49.006;9.292;2023-02-13T07:58:50;100820.53;;;1.43;100.00
50933;BME280;36921;49.006;9.292;2023-02-13T08:01:16;100830.31;;;1.57;100.00
50933;BME280;36921;49.006;9.292;2023-02-13T08:03:46;100821.72;;;1.95;100.00
50933;BME280;36921;49.006;9.292;2023-02-13T08:06:12;100805.59;;;2.51;100.00
50933;BME280;36921;49.006;9.292;2023-02-13T08:08:37;100797.78;;;3.00;100.00
50933;BME280;36921;49.006;9.292;2023-02-13T08:11:31;100813.06;;;2.98;100.00
50933;BME280;36921;49.006;9.292;2023-02-13T08:14:16;100804.25;;;3.86;100.00
50933;BME280;36921;49.006;9.292;2023-02-13T08:16:41;100789.84;;;4.48;100.00
50933;BME280;36921;49.006;9.292;2023-02-13T08:19:06;100798.00;;;4.81;100.00
50933;BME280;36921;49.006;9.292;2023-02-13T08:21:33;100803.09;;;4.38;100.00
50933;BME280;36921;49.006;9.292;2023-02-13T08:23:59;100781.03;;;5.16;100.00
50933;BME280;36921;49.006;9.292;2023-02-13T08:26:24;100797.50;;;5.68;100.00
50933;BME280;36921;49.006;9.292;2023-02-13T08:28:50;100783.13;;;5.24;100.00
50933;BME280;36921;49.006;9.292;2023-02-13T08:31:15;100784.78;;;5.02;100.00
50933;BME280;36921;49.006;9.292;2023-02-13T08:33:40;100787.88;;;6.43;100.00
50933;BME280;36921;49.006;9.292;2023-02-13T08:36:06;100788.50;;;6.88;100.00
50933;BME280;36921;49.006;9.292;2023-02-13T08:38:32;100800.28;;;7.08;100.00
50933;BME280;36921;49.006;9.292;2023-02-13T08:40:57;100790.66;;;9.24;100.00
50933;BME280;36921;49.006;9.292;2023-02-13T08:43:23;100773.03;;;10.76;77.54
50933;BME280;36921;49.006;9.292;2023-02-13T08:45:48;100770.41;;;12.72;64.22
50933;BME280;36921;49.006;9.292;2023-02-13T08:48:13;100775.78;;;13.54;59.33
50933;BME280;36921;49.006;9.292;2023-02-13T08:53:54;100779.25;;;14.50;54.25
50933;BME280;36921;49.006;9.292;2023-02-13T08:56:31;100782.31;;;14.78;50.92
50933;BME280;36921;49.006;9.292;2023-02-13T08:58:57;100769.34;;;15.85;51.03
50933;BME280;36921;49.006;9.292;2023-02-13T09:01:22;100761.53;;;16.18;47.46
50933;BME280;36921;49.006;9.292;2023-02-13T09:03:48;100781.16;;;17.01;47.28
50933;BME280;36921;49.006;9.292;2023-02-13T09:06:13;100781.50;;;17.48;44.94
50933;BME280;36921;49.006;9.292;2023-02-13T09:08:39;100777.59;;;16.79;46.55
50933;BME280;36921;49.006;9.292;2023-02-13T09:11:04;100782.56;;;16.54;46.52
50933;BME280;36921;49.006;9.292;2023-02-13T09:13:32;100772.13;;;16.43;46.89
50933;BME280;36921;49.006;9.292;2023-02-13T09:16:05;100762.34;;;15.97;47.64
50933;BME280;36921;49.006;9.292;2023-02-13T09:18:32;100773.78;;;17.02;47.08
50933;BME280;36921;49.006;9.292;2023-02-13T09:21:08;100763.53;;;18.76;44.62
50933;BME280;36921;49.006;9.292;2023-02-13T09:23:39;100779.09;;;17.66;44.71
50933;BME280;36921;49.006;9.292;2023-02-13T09:26:07;100764.13;;;19.52;42.19
50933;BME280;36921;49.006;9.292;2023-02-13T09:28:33;100769.44;;;19.33;41.54
50933;BME280;36921;49.006;9.292;2023-02-13T09:31:04;100757.03;;;20.86;40.09
50933;BME280;36921;49.006;9.292;2023-02-13T09:33:29;100757.47;;;20.06;40.10
50933;BME280;36921;49.006;9.292;2023-02-13T09:35:54;100759.63;;;21.31;38.55
50933;BME280;36921;49.006;9.292;2023-02-13T09:38:20;100739.47;;;20.10;40.66
50933;BME280;36921;49.006;9.292;2023-02-13T09:40:59;100754.31;;;20.41;40.69
50933;BME280;36921;49.006;9.292;2023-02-13T09:46:35;100765.16;;;20.74;40.56
50933;BME280;36921;49.006;9.292;2023-02-13T09:49:05;100778.50;;;21.71;37.52
50933;BME280;36921;49.006;9.292;2023-02-13T09:51:31;100762.66;;;22.21;37.66
50933;BME280;36921;49.006;9.292;2023-02-13T09:54:00;100761.84;;;22.93;36.94
50933;BME280;36921;49.006;9.292;2023-02-13T09:59:01;100763.72;;;22.39;36.84
50933;BME280;36921;49.006;9.292;2023-02-13T10:01:38;100759.94;;;24.11;35.13
50933;BME280;36921;49.006;9.292;2023-02-13T10:04:16;100767.38;;;22.51;36.56
50933;BME280;36921;49.006;9.292;2023-02-13T10:06:49;100761.41;;;24.31;35.09
50933;BME280;36921;49.006;9.292;2023-02-13T10:09:33;100761.06;;;23.16;35.97
50933;BME280;36921;49.006;9.292;2023-02-13T10:12:12;100763.84;;;23.51;35.33
50933;BME280;36921;49.006;9.292;2023-02-13T10:14:57;100756.50;;;23.33;36.04
50933;BME280;36921;49.006;9.292;2023-02-13T10:17:38;100743.53;;;25.12;33.64
50933;BME280;36921;49.006;9.292;2023-02-13T10:20:21;100749.94;;;24.10;33.67
50933;BME280;36921;49.006;9.292;2023-02-13T10:22:54;100736.41;;;26.60;32.38
50933;BME280;36921;49.006;9.292;2023-02-13T10:25:24;100748.69;;;25.76;32.87
50933;BME280;36921;49.006;9.292;2023-02-13T10:27:59;100738.59;;;26.58;31.91
50933;BME280;36921;49.006;9.292;2023-02-13T10:30:32;100736.25;;;25.62;32.48
50933;BME280;36921;49.006;9.292;2023-02-13T10:33:24;100739.09;;;25.45;32.62
50933;BME280;36921;49.006;9.292;2023-02-13T10:36:03;100722.75;;;26.32;32.21
50933;BME280;36921;49.006;9.292;2023-02-13T10:38:32;100732.44;;;25.12;32.59
50933;BME280;36921;49.006;9.292;2023-02-13T10:41:24;100727.44;;;26.53;31.45
50933;BME280;36921;49.006;9.292;2023-02-13T10:50:09;100716.28;;;28.08;29.65
50933;BME280;36921;49.006;9.292;2023-02-13T10:53:06;100714.47;;;29.46;28.46
50933;BME280;36921;49.006;9.292;2023-02-13T10:58:25;100704.03;;;27.93;29.28
50933;BME280;36921;49.006;9.292;2023-02-13T11:04:13;100683.72;;;27.45;29.44
50933;BME280;36921;49.006;9.292;2023-02-13T11:09:15;100687.78;;;28.58;28.15
50933;BME280;36921;49.006;9.292;2023-02-13T11:11:42;100682.47;;;29.13;28.66
50933;BME280;36921;49.006;9.292;2023-02-13T11:16:37;100686.66;;;29.16;28.32
50933;BME280;36921;49.006;9.292;2023-02-13T11:19:03;100680.59;;;29.84;27.76
50933;BME280;36921;49.006;9.292;2023-02-13T11:21:35;100676.66;;;30.45;26.97
50933;BME280;36921;49.006;9.292;2023-02-13T11:24:02;100678.56;;;27.64;28.56
50933;BME280;36921;49.006;9.292;2023-02-13T11:26:31;100680.88;;;29.87;28.31
50933;BME280;36921;49.006;9.292;2023-02-13T11:29:23;100677.75;;;28.98;27.97
50933;BME280;36921;49.006;9.292;2023-02-13T11:32:21;100684.53;;;30.38;26.95
50933;BME280;36921;49.006;9.292;2023-02-13T11:34:47;100684.78;;;29.86;27.67
50933;BME280;36921;49.006;9.292;2023-02-13T11:37:24;100672.66;;;28.34;28.41
50933;BME280;36921;49.006;9.292;2023-02-13T11:39:53;100675.22;;;29.22;28.09
50933;BME280;36921;49.006;9.292;2023-02-13T11:42:31;100664.34;;;30.80;27.24
50933;BME280;36921;49.006;9.292;2023-02-13T11:45:06;100678.97;;;30.72;27.01
50933;BME280;36921;49.006;9.292;2023-02-13T11:47:39;100672.13;;;30.88;27.09
50933;BME280;36921;49.006;9.292;2023-02-13T11:50:32;100672.72;;;28.80;28.12
50933;BME280;36921;49.006;9.292;2023-02-13T11:53:07;100673.22;;;30.13;27.67
50933;BME280;36921;49.006;9.292;2023-02-13T11:55:35;100676.91;;;29.99;26.98
50933;BME280;36921;49.006;9.292;2023-02-13T12:00:37;100667.16;;;28.80;28.45
50933;BME280;36921;49.006;9.292;2023-02-13T12:08:38;100672.97;;;26.79;30.38
50933;BME280;36921;49.006;9.292;2023-02-13T12:11:16;100678.50;;;26.47;30.70
50933;BME280;36921;49.006;9.292;2023-02-13T12:13:45;100656.81;;;27.51;30.34
50933;BME280;36921;49.006;9.292;2023-02-13T12:18:45;100657.16;;;29.90;27.67
50933;BME280;36921;49.006;9.292;2023-02-13T12:21:56;100665.97;;;29.42;28.02
50933;BME280;36921;49.006;9.292;2023-02-13T12:26:43;100649.31;;;26.44;30.87
50933;BME280;36921;49.006;9.292;2023-02-13T12:29:26;100659.53;;;25.85;32.14
50933;BME280;36921;49.006;9.292;2023-02-13T12:32:18;100654.69;;;27.21;30.41
50933;BME280;36921;49.006;9.292;2023-02-13T12:43:08;100628.84;;;26.51;31.06
50933;BME280;36921;49.006;9.292;2023-02-13T12:48:33;100642.09;;;23.70;33.54
50933;BME280;36921;49.006;9.292;2023-02-13T12:51:02;100639.97;;;24.97;33.04
50933;BME280;36921;49.006;9.292;2023-02-13T12:54:39;100637.06;;;25.64;32.48
50933;BME280;36921;49.006;9.292;2023-02-13T12:56:47;100636.16;;;25.58;32.60
50933;BME280;36921;49.006;9.292;2023-02-13T12:59:29;100634.16;;;24.14;33.68
50933;BME280;36921;49.006;9.292;2023-02-13T13:24:32;100616.84;;;26.45;32.45
50933;BME280;36921;49.006;9.292;2023-02-13T13:27:00;100606.00;;;25.84;32.51
50933;BME280;36921;49.006;9.292;2023-02-13T13:29:31;100608.47;;;26.40;32.36
50933;BME280;36921;49.006;9.292;2023-02-13T13:32:05;100615.59;;;25.76;32.72
50933;BME280;36921;49.006;9.292;2023-02-13T13:34:40;100619.38;;;24.70;33.78
50933;BME280;36921;49.006;9.292;2023-02-13T13:40:40;100608.63;;;26.93;31.52
50933;BME280;36921;49.006;9.292;2023-02-13T13:43:22;100605.03;;;26.28;32.53
50933;BME280;36921;49.006;9.292;2023-02-13T13:48:38;100590.22;;;28.02;31.08
50933;BME280;36921;49.006;9.292;2023-02-13T13:51:13;100588.88;;;27.31;30.97
50933;BME280;36921;49.006;9.292;2023-02-13T14:07:43;100582.44;;;27.89;31.49
50933;BME280;36921;49.006;9.292;2023-02-13T14:18:22;100586.78;;;26.64;32.15
50933;BME280;36921;49.006;9.292;2023-02-13T14:29:28;100596.72;;;25.12;33.34
50933;BME280;36921;49.006;9.292;2023-02-13T14:31:42;100574.88;;;23.12;36.00
50933;BME280;36921;49.006;9.292;2023-02-13T14:34:26;100594.38;;;24.32;35.15
50933;BME280;36921;49.006;9.292;2023-02-13T14:39:32;100580.44;;;24.26;35.20
50933;BME280;36921;49.006;9.292;2023-02-13T14:42:01;100586.66;;;22.18;37.82
50933;BME280;36921;49.006;9.292;2023-02-13T14:44:34;100586.94;;;21.56;38.68
50933;BME280;36921;49.006;9.292;2023-02-13T14:47:56;100584.44;;;22.27;38.02
50933;BME280;36921;49.006;9.292;2023-02-13T14:49:58;100586.03;;;21.44;39.19
50933;BME280;36921;49.006;9.292;2023-02-13T14:52:31;100594.13;;;21.39;39.54
50933;BME280;36921;49.006;9.292;2023-02-13T14:55:30;100593.31;;;19.49;42.56
50933;BME280;36921;49.006;9.292;2023-02-13T14:58:18;100593.28;;;18.18;45.18
50933;BME280;36921;49.006;9.292;2023-02-13T15:00:52;100594.75;;;16.41;48.88
50933;BME280;36921;49.006;9.292;2023-02-13T15:03:24;100599.84;;;15.65;52.92
50933;BME280;36921;49.006;9.292;2023-02-13T15:05:53;100579.25;;;15.11;56.49
50933;BME280;36921;49.006;9.292;2023-02-13T15:08:25;100586.22;;;14.84;60.72
50933;BME280;36921;49.006;9.292;2023-02-13T15:10:53;100591.50;;;14.86;64.12
50933;BME280;36921;49.006;9.292;2023-02-13T15:13:22;100594.78;;;14.81;64.95
50933;BME280;36921;49.006;9.292;2023-02-13T15:15:57;100594.25;;;15.37;63.30
50933;BME280;36921;49.006;9.292;2023-02-13T15:18:27;100584.06;;;16.47;58.84
50933;BME280;36921;49.006;9.292;2023-02-13T15:20:56;100581.53;;;17.08;55.77
50933;BME280;36921;49.006;9.292;2023-02-13T15:23:29;100575.06;;;17.70;53.21
50933;BME280;36921;49.006;9.292;2023-02-13T15:26:00;100571.72;;;17.68;52.12
50933;BME280;36921;49.006;9.292;2023-02-13T15:28:27;100573.91;;;18.20;50.65
50933;BME280;36921;49.006;9.292;2023-02-13T15:33:22;100579.34;;;17.86;50.78
50933;BME280;36921;49.006;9.292;2023-02-13T15:35:59;100578.56;;;18.19;49.84
50933;BME280;36921;49.006;9.292;2023-02-13T15:38:33;100563.53;;;17.20;51.45
50933;BME280;36921;49.006;9.292;2023-02-13T15:41:08;100576.84;;;16.39;54.49
50933;BME280;36921;49.006;9.292;2023-02-13T15:43:37;100578.72;;;15.01;58.86